Jonesburg, Missouri
Current Conditions -  °F | °C
As of 10:15 AM on Thursday 27 Nov 2014 (Local Time) from KFYG Reporting Station
Broken Clouds Broken Clouds  
Wind Chill: 24°   Ceiling: 2300
Heat Index: 32°   Visibility: 9mi
Dew Point: 25°   Wind: 10mph
Humidity: 75%   Direction: 320°NW
Pressure: 30.5"   Gusts: NA
Location:  38.85°N, 91.31°W
Report Text: KFYG 271615Z AUTO 32009KT 9SM BKN023 BKN028 00/M04 A3050 RMK AO2
Loading
Personal Weather Stations






























Interactive Weather Map New forecast layout! Learn more

10-Day Weather Forecast

Advertisements
Track Severe Weather on mobile